Time;durP1;ratioP1;P1;durP2;ratioP2;P2;SDS_P1;SDS_P2;PMS_P1;PMS_P2;Temp;Humidity;BMP_temperature;BMP_pressure;BME280_temperature;BME280_humidity;BME280_pressure;Samples;Min_cycle;Max_cycle;Signal;HPM_P1;HPM_P2
2022/08/25 00:00:48;;;;;;;;;;;;;;;26.42;47.83;99370.19;2025780;29;19941;-41
2022/08/25 00:01:59;;;;;;;;;;;;;;;26.43;47.75;99368.25;2026658;29;19919;-41
2022/08/25 00:03:00;;;;;;;;;;;;;;;26.41;47.95;99374.03;2026010;29;20090;-42
2022/08/25 00:04:02;;;;;;;;;;;;;;;26.42;47.78;99372.94;2025945;29;19919;-42
2022/08/25 00:05:03;;;;;;;;;;;;;;;26.42;47.68;99381.25;2027116;29;19919;-41
2022/08/25 00:06:04;;;;;;;;;;;;;;;26.42;47.87;99374.88;2016342;29;20863;-41
2022/08/25 00:07:05;;;;;;;;;;;;;;;26.41;47.73;99379.56;2017936;29;19915;-41
2022/08/25 00:08:06;;;;;;;;;;;;;;;26.42;47.88;99378.47;2026029;29;20100;-41
2022/08/25 00:09:07;;;;;;;;;;;;;;;26.42;47.68;99370.19;2026497;29;19919;-41
2022/08/25 00:10:08;;;;;;;;;;;;;;;26.42;47.82;99372.94;2016749;29;19930;-42
2022/08/25 00:11:10;;;;;;;;;;;;;;;26.41;47.55;99365.75;2010181;29;19916;-42
2022/08/25 00:12:11;;;;;;;;;;;;;;;26.41;47.73;99374.03;2011589;29;19916;-43
2022/08/25 00:13:11;;;;;;;;;;;;;;;26.41;47.57;99368.50;2017686;29;20444;-43
2022/08/25 00:14:14;;;;;;;;;;;;;;;26.41;47.55;99379.56;2025198;29;19962;-40
2022/08/25 00:15:14;;;;;;;;;;;;;;;26.42;47.62;99372.09;2027102;29;19950;-42
2022/08/25 00:16:16;;;;;;;;;;;;;;;26.42;47.88;99378.47;2026086;29;19918;-41
2022/08/25 00:17:16;;;;;;;;;;;;;;;26.41;47.88;99374.03;2027940;29;19919;-43
2022/08/25 00:18:17;;;;;;;;;;;;;;;26.42;47.64;99375.72;2026374;29;19915;-42
2022/08/25 00:19:19;;;;;;;;;;;;;;;26.41;47.66;99376.78;2027495;29;19915;-44
2022/08/25 00:20:21;;;;;;;;;;;;;;;26.42;47.57;99381.25;2028483;29;19915;-42
2022/08/25 00:21:22;;;;;;;;;;;;;;;26.42;47.65;99381.25;2022805;29;19927;-41
2022/08/25 00:22:22;;;;;;;;;;;;;;;26.42;47.73;99375.72;2028498;29;20328;-42
2022/08/25 00:23:23;;;;;;;;;;;;;;;26.41;47.59;99376.78;2028105;29;19927;-42
2022/08/25 00:24:24;;;;;;;;;;;;;;;26.42;47.63;99381.25;2026536;29;20669;-41
2022/08/25 00:25:24;;;;;;;;;;;;;;;26.42;47.67;99381.25;2027623;29;19918;-41
2022/08/25 00:26:26;;;;;;;;;;;;;;;26.43;47.61;99371.03;2027512;29;19940;-42
2022/08/25 00:27:26;;;;;;;;;;;;;;;26.42;47.64;99381.25;2018700;29;20337;-42
2022/08/25 00:28:29;;;;;;;;;;;;;;;26.41;47.64;99379.56;2019475;29;19977;-42
2022/08/25 00:29:30;;;;;;;;;;;;;;;26.42;47.64;99372.94;2025738;29;19992;-42
2022/08/25 00:30:30;;;;;;;;;;;;;;;26.42;47.68;99378.47;2025444;29;20037;-42
2022/08/25 00:31:31;;;;;;;;;;;;;;;26.42;47.80;99375.72;2015210;29;19927;-42
2022/08/25 00:32:31;;;;;;;;;;;;;;;26.41;47.92;99374.03;2015688;29;19927;-42
2022/08/25 00:33:32;;;;;;;;;;;;;;;26.42;47.68;99381.25;2027792;29;19923;-42
2022/08/25 00:34:34;;;;;;;;;;;;;;;26.41;47.89;99374.03;2027728;29;19923;-43
2022/08/25 00:35:34;;;;;;;;;;;;;;;26.42;47.77;99375.72;2027112;29;19926;-42
2022/08/25 00:36:35;;;;;;;;;;;;;;;26.42;47.72;99370.19;2027419;29;20530;-41
2022/08/25 00:37:37;;;;;;;;;;;;;;;26.42;47.64;99366.59;2027096;29;20013;-44
2022/08/25 00:38:38;;;;;;;;;;;;;;;26.42;47.57;99369.34;2027572;29;19953;-41
2022/08/25 00:39:38;;;;;;;;;;;;;;;26.42;47.65;99375.72;2026946;29;20321;-41
2022/08/25 00:40:41;;;;;;;;;;;;;;;26.42;47.63;99375.72;2027259;29;19926;-44
2022/08/25 00:41:41;;;;;;;;;;;;;;;26.40;47.66;99361.25;2022799;29;19948;-42
2022/08/25 00:42:42;;;;;;;;;;;;;;;26.41;47.70;99373.16;2019300;29;20499;-41
2022/08/25 00:43:45;;;;;;;;;;;;;;;26.41;47.64;99371.25;2026975;29;19919;-40
2022/08/25 00:44:46;;;;;;;;;;;;;;;26.42;47.61;99358.28;2022742;29;19925;-41
2022/08/25 00:45:47;;;;;;;;;;;;;;;26.40;47.65;99366.78;2026778;29;19927;-41
2022/08/25 00:46:49;;;;;;;;;;;;;;;26.41;47.71;99367.63;2022665;29;20377;-42
2022/08/25 00:47:49;;;;;;;;;;;;;;;26.40;47.75;99361.25;2028062;29;19923;-41
2022/08/25 00:48:53;;;;;;;;;;;;;;;26.40;47.80;99361.25;2027272;29;19938;-41
2022/08/25 00:49:57;;;;;;;;;;;;;;;26.40;47.66;99366.78;2028482;29;20018;-41
2022/08/25 00:50:58;;;;;;;;;;;;;;;26.39;47.81;99359.56;2024375;29;20397;-42
2022/08/25 00:52:04;;;;;;;;;;;;;;;26.41;47.50;99364.88;2023001;29;19917;-41
2022/08/25 00:53:06;;;;;;;;;;;;;;;26.40;47.77;99366.78;2026451;29;19919;-41
2022/08/25 00:54:07;;;;;;;;;;;;;;;26.40;47.65;99364.03;2019892;29;19919;-41
2022/08/25 00:55:10;;;;;;;;;;;;;;;26.41;47.78;99357.44;2019662;29;19923;-41
2022/08/25 00:56:11;;;;;;;;;;;;;;;26.41;47.74;99356.56;2023205;29;20756;-42
2022/08/25 00:57:13;;;;;;;;;;;;;;;26.40;47.73;99361.25;2022551;29;19933;-42
2022/08/25 00:58:23;;;;;;;;;;;;;;;26.41;47.50;99362.09;2026489;29;20284;-41
2022/08/25 00:59:25;;;;;;;;;;;;;;;26.41;47.51;99357.44;2027648;29;19915;-43
2022/08/25 01:00:33;;;;;;;;;;;;;;;26.41;47.71;99357.44;2026460;29;19923;-43
2022/08/25 01:01:34;;;;;;;;;;;;;;;26.41;47.48;99365.75;2027325;29;20426;-42
2022/08/25 01:02:34;;;;;;;;;;;;;;;26.40;47.48;99355.72;2027353;29;19919;-41
2022/08/25 01:03:34;;;;;;;;;;;;;;;26.41;47.44;99357.44;2021000;29;20116;-42
2022/08/25 01:04:36;;;;;;;;;;;;;;;26.40;47.53;99369.53;2019097;29;20012;-41
2022/08/25 01:05:37;;;;;;;;;;;;;;;26.40;47.46;99366.78;2027979;29;19957;-42
2022/08/25 01:06:39;;;;;;;;;;;;;;;26.41;47.77;99367.63;2020302;29;19930;-42
2022/08/25 01:07:40;;;;;;;;;;;;;;;26.40;47.64;99372.31;2019898;29;19930;-41
2022/08/25 01:08:41;;;;;;;;;;;;;;;26.41;47.77;99373.16;2022807;29;20495;-41
2022/08/25 01:09:42;;;;;;;;;;;;;;;26.41;47.71;99367.63;2027420;29;20512;-41
2022/08/25 01:10:43;;;;;;;;;;;;;;;26.41;47.70;99371.25;2027591;29;19919;-42
2022/08/25 01:11:44;;;;;;;;;;;;;;;26.40;47.65;99371.47;2016285;29;19980;-42
2022/08/25 01:12:44;;;;;;;;;;;;;;;26.41;47.79;99374.03;2019645;29;19975;-42
2022/08/25 01:13:48;;;;;;;;;;;;;;;26.41;47.55;99374.03;2027609;29;19934;-41
2022/08/25 01:14:48;;;;;;;;;;;;;;;26.42;47.64;99374.88;2028335;29;19923;-41
2022/08/25 01:15:51;;;;;;;;;;;;;;;26.41;47.79;99365.75;2026691;29;20385;-41
2022/08/25 01:16:52;;;;;;;;;;;;;;;26.40;47.86;99372.31;2026539;29;19947;-41
2022/08/25 01:17:54;;;;;;;;;;;;;;;26.40;47.58;99372.31;2017383;29;19919;-41
2022/08/25 01:18:56;;;;;;;;;;;;;;;26.41;47.71;99378.69;2019138;29;19911;-41
2022/08/25 01:19:56;;;;;;;;;;;;;;;26.41;47.58;99373.16;2027065;29;20300;-42
2022/08/25 01:20:58;;;;;;;;;;;;;;;26.41;47.73;99374.03;2026625;29;19919;-41
2022/08/25 01:21:59;;;;;;;;;;;;;;;26.40;47.73;99372.31;2027485;29;20595;-42
2022/08/25 01:22:59;;;;;;;;;;;;;;;26.39;48.05;99373.38;2018048;29;19936;-40
2022/08/25 01:24:00;;;;;;;;;;;;;;;26.40;47.77;99371.47;2017920;29;20445;-41
2022/08/25 01:25:02;;;;;;;;;;;;;;;26.40;47.70;99372.31;2024444;29;20397;-42
2022/08/25 01:26:02;;;;;;;;;;;;;;;26.39;47.66;99376.16;2026171;29;20355;-43
2022/08/25 01:27:03;;;;;;;;;;;;;;;26.40;47.67;99369.53;2027841;29;20462;-41
2022/08/25 01:28:04;;;;;;;;;;;;;;;26.40;47.72;99372.31;2025969;29;20292;-42
2022/08/25 01:29:24;;;;;;;;;;;;;;;26.40;47.88;99366.78;2026479;29;19925;-41
2022/08/25 01:30:24;;;;;;;;;;;;;;;26.39;47.79;99370.63;2026303;29;19911;-41
2022/08/25 01:31:25;;;;;;;;;;;;;;;26.39;47.68;99365.09;2023255;29;19919;-41
2022/08/25 01:32:26;;;;;;;;;;;;;;;26.39;47.89;99367.88;2027335;29;19978;-41
2022/08/25 01:33:26;;;;;;;;;;;;;;;26.39;47.93;99370.63;2024168;29;20231;-41
2022/08/25 01:34:28;;;;;;;;;;;;;;;26.40;47.75;99371.47;2027404;29;19925;-43
2022/08/25 01:35:29;;;;;;;;;;;;;;;26.38;48.00;99363.38;2018376;29;19934;-41
2022/08/25 01:36:30;;;;;;;;;;;;;;;26.38;47.93;99374.44;2018709;29;20051;-41
2022/08/25 01:37:33;;;;;;;;;;;;;;;26.38;47.65;99371.66;2028170;29;19927;-42
2022/08/25 01:38:33;;;;;;;;;;;;;;;26.38;47.68;99368.91;2030362;29;19919;-43
2022/08/25 01:39:37;;;;;;;;;;;;;;;26.40;47.88;99379.75;2022044;29;20013;-41
2022/08/25 01:40:38;;;;;;;;;;;;;;;26.39;47.81;99381.69;2024226;29;19969;-42
2022/08/25 01:41:44;;;;;;;;;;;;;;;26.40;47.70;99385.28;2026612;29;19960;-44
2022/08/25 01:43:03;;;;;;;;;;;;;;;26.39;47.92;99376.16;2026644;29;19977;-42
2022/08/25 01:44:07;;;;;;;;;;;;;;;26.39;47.77;99387.22;2027267;29;19987;-42
2022/08/25 01:45:09;;;;;;;;;;;;;;;26.40;48.06;99382.53;2025262;29;20191;-44
2022/08/25 01:46:09;;;;;;;;;;;;;;;26.40;47.88;99385.28;2027271;29;19919;-42
2022/08/25 01:47:10;;;;;;;;;;;;;;;26.40;47.89;99383.38;2025429;29;19919;-42
2022/08/25 01:48:11;;;;;;;;;;;;;;;26.40;47.75;99382.53;2027095;29;19927;-41
2022/08/25 01:49:11;;;;;;;;;;;;;;;26.40;47.86;99386.13;2026574;29;19919;-42
2022/08/25 01:50:12;;;;;;;;;;;;;;;26.40;47.85;99386.13;2026759;29;19919;-42
2022/08/25 01:51:15;;;;;;;;;;;;;;;26.39;47.97;99376.16;2025316;29;19941;-43
2022/08/25 01:52:16;;;;;;;;;;;;;;;26.40;48.15;99385.28;2026687;29;19947;-42
2022/08/25 01:53:18;;;;;;;;;;;;;;;26.40;47.93;99382.53;2028055;29;19911;-43
2022/08/25 01:54:18;;;;;;;;;;;;;;;26.40;47.87;99383.38;2024261;29;19929;-42
2022/08/25 01:55:18;;;;;;;;;;;;;;;26.39;48.21;99381.69;2015341;29;19927;-43
2022/08/25 01:56:19;;;;;;;;;;;;;;;26.40;47.87;99388.88;2015447;29;19963;-43
2022/08/25 01:57:19;;;;;;;;;;;;;;;26.39;47.86;99387.22;2027180;29;19971;-43
2022/08/25 01:58:25;;;;;;;;;;;;;;;26.39;47.88;99387.22;2026051;29;20396;-42
2022/08/25 01:59:25;;;;;;;;;;;;;;;26.39;47.92;99378.91;2018954;29;19924;-43
2022/08/25 02:00:26;;;;;;;;;;;;;;;26.40;47.80;99386.13;2026100;29;19919;-42
2022/08/25 02:01:26;;;;;;;;;;;;;;;26.40;48.16;99379.75;2026757;29;19930;-43
2022/08/25 02:02:26;;;;;;;;;;;;;;;26.39;47.81;99384.44;2026444;29;19923;-42
2022/08/25 02:03:27;;;;;;;;;;;;;;;26.38;48.15;99388.25;2025948;29;19923;-42
2022/08/25 02:04:30;;;;;;;;;;;;;;;26.38;48.09;99379.97;2027522;29;19931;-43
2022/08/25 02:05:31;;;;;;;;;;;;;;;26.38;47.95;99388.25;2026476;29;20414;-41
2022/08/25 02:06:32;;;;;;;;;;;;;;;26.38;47.83;99382.72;2024423;29;19923;-43
2022/08/25 02:07:33;;;;;;;;;;;;;;;26.37;48.15;99386.56;2024179;29;19919;-42
2022/08/25 02:08:33;;;;;;;;;;;;;;;26.38;47.93;99385.50;2027879;29;19926;-42
2022/08/25 02:09:35;;;;;;;;;;;;;;;26.38;48.12;99385.50;2026879;29;20463;-41
2022/08/25 02:10:35;;;;;;;;;;;;;;;26.38;47.98;99391.00;2026306;29;19914;-44
2022/08/25 02:11:37;;;;;;;;;;;;;;;26.38;47.89;99390.16;2019981;29;19958;-42
2022/08/25 02:12:37;;;;;;;;;;;;;;;26.37;48.16;99394.84;2017300;29;19994;-42
2022/08/25 02:13:39;;;;;;;;;;;;;;;26.38;47.85;99387.41;2019398;29;19915;-42
2022/08/25 02:14:39;;;;;;;;;;;;;;;26.37;47.87;99389.31;2023292;29;20203;-42
2022/08/25 02:15:41;;;;;;;;;;;;;;;26.37;47.84;99392.09;2026687;29;19927;-44
2022/08/25 02:16:44;;;;;;;;;;;;;;;26.36;47.99;99390.41;2027230;29;19975;-42
2022/08/25 02:17:44;;;;;;;;;;;;;;;26.37;47.87;99383.81;2026631;29;20795;-43
2022/08/25 02:18:46;;;;;;;;;;;;;;;26.36;47.81;99386.78;2025286;29;19915;-41
2022/08/25 02:19:46;;;;;;;;;;;;;;;26.37;48.13;99392.09;2018202;29;19919;-42
2022/08/25 02:20:47;;;;;;;;;;;;;;;26.36;48.12;99387.66;2012797;29;19971;-42
2022/08/25 02:21:47;;;;;;;;;;;;;;;26.36;47.89;99390.41;2016201;29;19920;-41
2022/08/25 02:22:47;;;;;;;;;;;;;;;26.36;48.11;99393.16;2017375;29;20306;-41
2022/08/25 02:23:48;;;;;;;;;;;;;;;26.37;47.82;99394.84;2027419;29;20448;-42
2022/08/25 02:24:49;;;;;;;;;;;;;;;26.37;48.15;99394.84;2026892;29;19962;-42
2022/08/25 02:25:49;;;;;;;;;;;;;;;26.37;48.08;99394.84;2027064;29;19930;-43
2022/08/25 02:26:49;;;;;;;;;;;;;;;26.37;47.89;99397.63;2027127;29;19959;-41
2022/08/25 02:27:50;;;;;;;;;;;;;;;26.36;47.97;99398.69;2024837;29;19926;-41
2022/08/25 02:28:51;;;;;;;;;;;;;;;26.38;47.94;99401.22;2026314;29;19919;-43
2022/08/25 02:29:51;;;;;;;;;;;;;;;26.37;48.03;99394.84;2025859;29;19923;-42
2022/08/25 02:30:51;;;;;;;;;;;;;;;26.37;48.10;99400.38;2026539;29;19930;-41
2022/08/25 02:31:52;;;;;;;;;;;;;;;26.38;47.96;99406.75;2027448;29;19919;-43
2022/08/25 02:32:52;;;;;;;;;;;;;;;26.37;48.01;99400.38;2018368;29;19927;-41
2022/08/25 02:33:53;;;;;;;;;;;;;;;26.37;48.01;99400.38;2010497;29;19932;-43
2022/08/25 02:34:54;;;;;;;;;;;;;;;26.38;48.09;99402.06;2018486;29;19919;-41
2022/08/25 02:35:58;;;;;;;;;;;;;;;26.37;48.31;99405.91;2018215;29;19958;-42
2022/08/25 02:36:58;;;;;;;;;;;;;;;26.37;48.27;99399.53;2019650;29;20452;-42
2022/08/25 02:37:59;;;;;;;;;;;;;;;26.37;48.12;99400.38;2025743;29;19929;-41
2022/08/25 02:38:59;;;;;;;;;;;;;;;26.38;47.98;99406.75;2024874;29;20155;-42
2022/08/25 02:39:59;;;;;;;;;;;;;;;26.38;48.27;99404.81;2022912;29;19945;-42
2022/08/25 02:41:00;;;;;;;;;;;;;;;26.37;48.32;99405.91;2025464;29;19919;-42
2022/08/25 02:42:01;;;;;;;;;;;;;;;26.37;48.19;99405.91;2027474;29;19973;-42
2022/08/25 02:43:01;;;;;;;;;;;;;;;26.37;48.30;99405.91;2025536;29;19960;-43
2022/08/25 02:44:02;;;;;;;;;;;;;;;26.37;48.33;99411.44;2022144;29;19925;-42
2022/08/25 02:45:03;;;;;;;;;;;;;;;26.37;48.09;99411.44;2026970;29;19955;-41
2022/08/25 02:46:03;;;;;;;;;;;;;;;26.37;48.03;99407.81;2025655;29;19926;-42
2022/08/25 02:47:04;;;;;;;;;;;;;;;26.37;48.31;99410.59;2024188;29;19957;-41
2022/08/25 02:48:04;;;;;;;;;;;;;;;26.37;48.33;99411.44;2015966;29;20305;-42
2022/08/25 02:49:05;;;;;;;;;;;;;;;26.36;48.36;99418.03;2018333;29;19947;-42
2022/08/25 02:50:08;;;;;;;;;;;;;;;26.37;48.25;99428.00;2026355;29;20438;-41
2022/08/25 02:51:09;;;;;;;;;;;;;;;26.36;48.18;99415.28;2026060;29;19919;-41
2022/08/25 02:52:09;;;;;;;;;;;;;;;26.37;48.32;99421.66;2028486;29;20454;-42
2022/08/25 02:53:09;;;;;;;;;;;;;;;26.36;48.12;99422.69;2024188;29;19954;-41
2022/08/25 02:54:10;;;;;;;;;;;;;;;26.35;48.33;99424.59;2027280;29;19922;-43
2022/08/25 02:55:12;;;;;;;;;;;;;;;26.36;48.41;99431.84;2025270;29;19915;-41
2022/08/25 02:56:13;;;;;;;;;;;;;;;26.35;48.09;99430.13;2025914;29;19923;-40
2022/08/25 02:57:14;;;;;;;;;;;;;;;26.35;48.29;99424.59;2021612;29;19972;-41
2022/08/25 02:58:14;;;;;;;;;;;;;;;26.35;48.34;99432.06;2009948;29;19919;-42
2022/08/25 02:59:16;;;;;;;;;;;;;;;26.36;48.36;99430.97;2010680;29;19919;-42
2022/08/25 03:00:17;;;;;;;;;;;;;;;26.35;48.17;99429.28;2017021;29;19924;-41
2022/08/25 03:01:18;;;;;;;;;;;;;;;26.34;48.37;99433.97;2017795;29;20300;-42
2022/08/25 03:02:18;;;;;;;;;;;;;;;26.34;48.26;99433.97;2019026;29;19931;-41
2022/08/25 03:03:19;;;;;;;;;;;;;;;26.34;48.07;99433.97;2009240;29;19923;-42
2022/08/25 03:04:19;;;;;;;;;;;;;;;26.34;48.12;99439.50;2010324;29;19923;-43
2022/08/25 03:05:19;;;;;;;;;;;;;;;26.34;48.19;99445.03;2023352;29;20373;-42
2022/08/25 03:06:22;;;;;;;;;;;;;;;26.35;48.08;99459.69;2018573;29;19915;-43
2022/08/25 03:07:22;;;;;;;;;;;;;;;26.35;48.17;99465.22;2025185;29;19946;-42
2022/08/25 03:08:23;;;;;;;;;;;;;;;26.35;48.14;99467.97;2016684;29;20366;-41
2022/08/25 03:09:25;;;;;;;;;;;;;;;26.34;48.12;99480.94;2018882;29;19996;-42
2022/08/25 03:10:26;;;;;;;;;;;;;;;26.35;48.14;99474.34;2018852;29;20502;-41
2022/08/25 03:11:26;;;;;;;;;;;;;;;26.35;48.29;99476.25;2017410;29;19931;-42
2022/08/25 03:12:26;;;;;;;;;;;;;;;26.35;48.17;99471.56;2012182;29;19950;-41
2022/08/25 03:13:27;;;;;;;;;;;;;;;26.35;48.40;99468.81;2010399;29;19928;-42
2022/08/25 03:14:27;;;;;;;;;;;;;;;26.35;48.39;99468.81;2009898;29;19920;-41
2022/08/25 03:15:27;;;;;;;;;;;;;;;26.34;48.11;99478.19;2019274;29;19975;-42
2022/08/25 03:16:28;;;;;;;;;;;;;;;26.35;48.19;99490.91;2023539;29;19924;-42
2022/08/25 03:17:28;;;;;;;;;;;;;;;26.36;48.22;99494.53;2021127;29;19923;-41
2022/08/25 03:18:29;;;;;;;;;;;;;;;26.35;48.13;99499.22;2018493;29;19919;-42
2022/08/25 03:19:29;;;;;;;;;;;;;;;26.35;48.18;99492.84;2017525;29;19931;-42
2022/08/25 03:20:29;;;;;;;;;;;;;;;26.35;48.36;99496.44;2019558;29;19930;-42
2022/08/25 03:21:30;;;;;;;;;;;;;;;26.35;48.16;99496.44;2018750;29;19964;-41
2022/08/25 03:22:30;;;;;;;;;;;;;;;26.35;48.42;99510.25;2016754;29;19930;-42
2022/08/25 03:23:31;;;;;;;;;;;;;;;26.35;48.14;99513.03;2019020;29;19928;-42
2022/08/25 03:24:31;;;;;;;;;;;;;;;26.35;48.46;99514.94;2010225;29;19920;-42
2022/08/25 03:26:54;;;;;;;;;;;;;;;26.34;48.17;99511.34;2026551;29;19919;-41
2022/08/25 03:27:55;;;;;;;;;;;;;;;26.35;48.07;99518.56;2015544;29;19919;-42
2022/08/25 03:28:55;;;;;;;;;;;;;;;26.35;48.05;99521.31;2018465;29;19923;-43
2022/08/25 03:29:55;;;;;;;;;;;;;;;26.34;48.11;99525.16;2018113;29;19919;-43
2022/08/25 03:30:56;;;;;;;;;;;;;;;26.34;48.42;99527.91;2018670;29;20528;-42
2022/08/25 03:31:59;;;;;;;;;;;;;;;26.33;48.34;99520.66;2018954;29;19919;-42
2022/08/25 03:33:00;;;;;;;;;;;;;;;26.33;48.06;99526.19;2017713;29;20135;-42
2022/08/25 03:34:00;;;;;;;;;;;;;;;26.32;48.37;99518.97;2009739;29;19928;-41
2022/08/25 03:35:01;;;;;;;;;;;;;;;26.33;48.05;99531.72;2010383;29;19923;-42
2022/08/25 03:36:01;;;;;;;;;;;;;;;26.32;47.97;99532.78;2016522;29;20190;-42
2022/08/25 03:37:01;;;;;;;;;;;;;;;26.32;48.22;99530.03;2013022;29;19930;-41
2022/08/25 03:38:03;;;;;;;;;;;;;;;26.32;48.16;99530.03;2028733;29;19919;-43
2022/08/25 03:39:04;;;;;;;;;;;;;;;26.32;47.84;99532.78;2021350;29;19911;-41
2022/08/25 03:40:06;;;;;;;;;;;;;;;26.32;48.13;99534.72;2017731;29;20157;-42
2022/08/25 03:41:27;;;;;;;;;;;;;;;26.30;48.02;99533.00;2018531;29;19918;-42
2022/08/25 03:42:27;;;;;;;;;;;;;;;26.31;47.95;99539.38;2017614;29;20401;-42
2022/08/25 03:43:27;;;;;;;;;;;;;;;26.30;48.20;99540.44;2018580;29;19960;-41
2022/08/25 03:44:28;;;;;;;;;;;;;;;26.30;47.95;99541.28;2021814;29;19958;-41
2022/08/25 03:45:28;;;;;;;;;;;;;;;26.31;47.86;99539.38;2018682;29;20364;-42
2022/08/25 03:46:30;;;;;;;;;;;;;;;26.30;48.00;99543.19;2017802;29;19977;-42
2022/08/25 03:47:30;;;;;;;;;;;;;;;26.31;47.84;99550.41;2019020;29;19958;-41
2022/08/25 03:48:31;;;;;;;;;;;;;;;26.31;47.98;99550.41;2018590;29;19912;-43
2022/08/25 03:49:31;;;;;;;;;;;;;;;26.30;47.95;99544.03;2010207;29;19919;-42
2022/08/25 03:50:32;;;;;;;;;;;;;;;26.32;48.12;99543.00;2010109;29;20389;-42
2022/08/25 03:51:34;;;;;;;;;;;;;;;26.31;48.00;99539.38;2015366;29;20401;-42
2022/08/25 03:52:35;;;;;;;;;;;;;;;26.31;48.09;99550.41;2018998;29;19975;-42
2022/08/25 03:53:35;;;;;;;;;;;;;;;26.32;48.09;99552.13;2006367;29;20219;-41
2022/08/25 03:54:36;;;;;;;;;;;;;;;26.32;47.94;99557.66;1995461;29;19927;-41
2022/08/25 03:55:36;;;;;;;;;;;;;;;26.32;48.00;99562.34;2000199;29;19921;-42
2022/08/25 03:56:37;;;;;;;;;;;;;;;26.32;47.91;99560.41;2013862;29;20205;-41
2022/08/25 03:57:37;;;;;;;;;;;;;;;26.32;47.91;99568.72;2025786;29;19923;-41
2022/08/25 03:58:37;;;;;;;;;;;;;;;26.33;48.14;99575.09;2018769;29;19930;-41
2022/08/25 03:59:38;;;;;;;;;;;;;;;26.33;47.90;99575.09;2010452;29;20111;-41
2022/08/25 04:00:38;;;;;;;;;;;;;;;26.33;47.89;99569.56;2009860;29;20022;-41
2022/08/25 04:01:40;;;;;;;;;;;;;;;26.32;48.12;99574.25;2018040;29;20777;-41
2022/08/25 04:02:41;;;;;;;;;;;;;;;26.33;48.13;99578.69;2019145;29;19984;-43
2022/08/25 04:03:41;;;;;;;;;;;;;;;26.32;48.01;99571.47;2014974;29;19928;-42
2022/08/25 04:04:41;;;;;;;;;;;;;;;26.33;48.14;99580.59;2018459;29;20063;-44
2022/08/25 04:05:42;;;;;;;;;;;;;;;26.33;47.91;99581.44;2011288;29;20377;-43
2022/08/25 04:06:42;;;;;;;;;;;;;;;26.32;47.86;99579.75;2016954;29;20184;-41
2022/08/25 04:07:43;;;;;;;;;;;;;;;26.32;47.97;99582.53;2018782;29;19919;-41
2022/08/25 04:08:43;;;;;;;;;;;;;;;26.32;47.99;99582.53;2018631;29;19919;-41
2022/08/25 04:09:44;;;;;;;;;;;;;;;26.32;48.06;99582.53;2017665;29;19922;-41
2022/08/25 04:10:44;;;;;;;;;;;;;;;26.33;48.04;99595.25;2017244;29;20039;-41
2022/08/25 04:11:45;;;;;;;;;;;;;;;26.33;47.98;99595.25;2017108;29;19934;-42
2022/08/25 04:12:48;;;;;;;;;;;;;;;26.33;48.07;99589.75;2018454;29;19970;-42
2022/08/25 04:13:48;;;;;;;;;;;;;;;26.33;48.13;99597.19;2018782;29;19912;-42
2022/08/25 04:14:49;;;;;;;;;;;;;;;26.32;47.80;99601.88;2009891;29;20384;-41
2022/08/25 04:15:49;;;;;;;;;;;;;;;26.32;47.86;99596.34;2009738;29;20681;-42
2022/08/25 04:16:51;;;;;;;;;;;;;;;26.32;48.16;99607.41;2018318;29;19942;-41
2022/08/25 04:17:51;;;;;;;;;;;;;;;26.32;48.01;99615.69;2016410;29;19930;-42
2022/08/25 04:18:53;;;;;;;;;;;;;;;26.32;47.90;99615.69;2018359;29;19966;-41
2022/08/25 04:19:53;;;;;;;;;;;;;;;26.32;47.83;99618.44;2017665;29;20777;-42
2022/08/25 04:21:00;;;;;;;;;;;;;;;26.32;47.93;99612.91;2017824;29;19984;-42
2022/08/25 04:22:01;;;;;;;;;;;;;;;26.31;47.90;99616.72;2017667;29;20018;-42
2022/08/25 04:23:01;;;;;;;;;;;;;;;26.30;48.11;99610.34;2018895;29;19924;-41
2022/08/25 04:24:02;;;;;;;;;;;;;;;26.30;47.86;99612.28;2010739;29;19954;-41
2022/08/25 04:25:03;;;;;;;;;;;;;;;26.31;48.07;99611.19;2001299;29;19974;-41
2022/08/25 04:26:12;;;;;;;;;;;;;;;26.30;47.93;99617.81;2002277;29;19953;-42
2022/08/25 04:27:12;;;;;;;;;;;;;;;26.29;48.01;99618.88;2011881;29;20397;-44
2022/08/25 04:28:12;;;;;;;;;;;;;;;26.29;47.93;99618.88;2018065;29;19920;-41
2022/08/25 04:29:14;;;;;;;;;;;;;;;26.30;48.07;99620.56;2016572;29;19915;-45
2022/08/25 04:30:14;;;;;;;;;;;;;;;26.29;48.09;99619.72;2018914;29;19951;-42
2022/08/25 04:31:16;;;;;;;;;;;;;;;26.29;47.81;99619.72;2017723;29;19920;-42
2022/08/25 04:32:16;;;;;;;;;;;;;;;26.28;48.02;99617.16;2017929;29;19970;-42
2022/08/25 04:33:16;;;;;;;;;;;;;;;26.29;47.89;99621.63;2018317;29;19919;-43
2022/08/25 04:34:17;;;;;;;;;;;;;;;26.29;48.02;99621.63;2017579;29;20368;-42
2022/08/25 04:35:18;;;;;;;;;;;;;;;26.30;47.85;99620.56;2018266;29;20093;-42
2022/08/25 04:36:19;;;;;;;;;;;;;;;26.30;47.81;99620.56;2019071;29;19930;-43
2022/08/25 04:37:19;;;;;;;;;;;;;;;26.28;48.03;99615.22;2018015;29;19967;-42
2022/08/25 04:38:19;;;;;;;;;;;;;;;26.29;47.92;99616.09;2019248;29;19918;-44
2022/08/25 04:39:20;;;;;;;;;;;;;;;26.30;47.81;99617.81;2018300;29;20043;-42
2022/08/25 04:40:20;;;;;;;;;;;;;;;26.29;48.13;99613.34;2018517;29;20520;-42
2022/08/25 04:41:22;;;;;;;;;;;;;;;26.30;47.81;99615.03;2017612;29;19966;-44
2022/08/25 04:42:22;;;;;;;;;;;;;;;26.28;48.07;99622.69;2018076;29;19931;-42
2022/08/25 04:43:22;;;;;;;;;;;;;;;26.29;47.87;99618.88;2016750;29;19923;-43
2022/08/25 04:44:22;;;;;;;;;;;;;;;26.29;47.89;99619.72;2017796;29;19927;-43
2022/08/25 04:45:23;;;;;;;;;;;;;;;26.29;48.11;99625.25;2017856;29;19919;-41
2022/08/25 04:46:25;;;;;;;;;;;;;;;26.28;47.92;99629.03;2018597;29;20373;-42
2022/08/25 04:47:25;;;;;;;;;;;;;;;26.29;47.87;99622.47;2017900;29;19920;-42
2022/08/25 04:48:25;;;;;;;;;;;;;;;26.30;47.86;99631.63;2018047;29;20370;-42
2022/08/25 04:49:27;;;;;;;;;;;;;;;26.29;48.14;99629.91;2018884;29;19923;-41
2022/08/25 04:50:27;;;;;;;;;;;;;;;26.30;47.84;99637.13;2018274;29;19928;-42
2022/08/25 04:51:29;;;;;;;;;;;;;;;26.30;48.14;99623.31;2008827;29;19920;-41
2022/08/25 04:52:30;;;;;;;;;;;;;;;26.29;47.92;99624.41;2009754;29;19920;-41
2022/08/25 04:53:31;;;;;;;;;;;;;;;26.29;48.10;99618.88;2015671;29;21143;-42
2022/08/25 04:54:32;;;;;;;;;;;;;;;26.29;47.89;99624.41;2017678;29;20054;-42
2022/08/25 04:55:32;;;;;;;;;;;;;;;26.29;48.07;99630.78;2018895;29;19920;-41
2022/08/25 04:56:33;;;;;;;;;;;;;;;26.29;47.93;99628.00;2016941;29;19983;-41
2022/08/25 04:57:33;;;;;;;;;;;;;;;26.29;48.18;99629.91;2017872;29;19933;-42
2022/08/25 04:58:34;;;;;;;;;;;;;;;26.29;48.19;99629.91;2018408;29;19924;-42
2022/08/25 04:59:34;;;;;;;;;;;;;;;26.29;47.88;99638.22;2009111;29;19920;-40
2022/08/25 05:00:35;;;;;;;;;;;;;;;26.29;47.99;99640.97;2011134;29;20604;-42
2022/08/25 05:01:37;;;;;;;;;;;;;;;26.28;47.87;99648.38;2017828;29;20125;-41
2022/08/25 05:02:37;;;;;;;;;;;;;;;26.29;47.89;99646.50;2018383;29;20402;-42
2022/08/25 05:03:37;;;;;;;;;;;;;;;26.28;48.16;99644.78;2019713;29;20174;-43
2022/08/25 05:04:38;;;;;;;;;;;;;;;26.28;47.89;99640.09;2018976;29;19974;-43
2022/08/25 05:05:39;;;;;;;;;;;;;;;26.28;48.00;99650.31;2020451;29;19919;-41
2022/08/25 05:06:39;;;;;;;;;;;;;;;26.28;48.01;99647.53;2017633;29;20454;-41
2022/08/25 05:07:40;;;;;;;;;;;;;;;26.28;48.32;99647.53;2017182;29;19924;-42
2022/08/25 05:08:40;;;;;;;;;;;;;;;26.28;48.04;99650.31;2019797;29;19927;-42
2022/08/25 05:09:40;;;;;;;;;;;;;;;26.27;48.11;99657.75;2019003;29;19923;-41
2022/08/25 05:10:41;;;;;;;;;;;;;;;26.29;48.39;99668.59;2021317;29;19919;-40
2022/08/25 05:11:42;;;;;;;;;;;;;;;26.28;48.21;99655.81;2017945;29;19916;-41
2022/08/25 05:12:42;;;;;;;;;;;;;;;26.28;48.46;99664.13;2018821;29;20008;-41
2022/08/25 05:13:43;;;;;;;;;;;;;;;26.27;48.47;99659.66;2020213;29;19919;-43
2022/08/25 05:14:44;;;;;;;;;;;;;;;26.28;48.44;99664.13;2020091;29;19923;-41
2022/08/25 05:15:50;;;;;;;;;;;;;;;26.28;48.34;99666.88;2010649;29;19923;-41
2022/08/25 05:16:50;;;;;;;;;;;;;;;26.28;48.14;99666.88;2004179;29;19917;-41
2022/08/25 05:17:50;;;;;;;;;;;;;;;26.29;48.45;99671.38;2010949;29;20387;-43
2022/08/25 05:18:52;;;;;;;;;;;;;;;26.28;48.14;99673.25;2019855;29;19927;-41
2022/08/25 05:19:52;;;;;;;;;;;;;;;26.28;48.14;99670.50;2011236;29;19977;-42
2022/08/25 05:20:53;;;;;;;;;;;;;;;26.29;48.19;99674.13;2008661;29;19919;-42